Ride Results

Gulgong Gold Rush (17-06-2007)
Ride distance: 80.0 km

Outcomes - Gulgong Gold Rush (17-06-2007)
Division No. of Entries Retired / DNE Completed Withdrawn Ineligible V/O Percentage Completed
HW 26 - 23 2 - 1 88.46%
MW 20 - 16 2 - 2 80.00%
LW 11 - 6 - - 5 54.55%
JN 11 - 9 - - 2 81.82%
Totals 68 - 54 4 - 10 79.41%
Results - Gulgong Gold Rush (17-06-2007)
No. Rider Horse Place Time Leg Speeds Total
Km/Hr
H/R bpm
Heavyweight
91 Mark Cameron Danjera Hashman 1 (BC) 4:09:00 19.6, 18.8 19.28 36, 40, 40 (Avg:40)
71 Peter Cooper Anabriar Khaboul 1 4:09:00 19.6, 18.8 19.28 42, 42, 50 (Avg:46)
81 Haydn Fisher Aylah 3 4:31:00 19.6, 16.1 17.71 38, 42, 48 (Avg:45)
72 Rex Cox Markus Zen Galaxy 4 5:00:00 16.9, 15.1 16.00 42, 48, 46 (Avg:47)
78 Kym Hagon Diamond R Boston 5 5:43:00 15.9, 12.4 13.99 42, 48, 48 (Avg:48)
76 Charles Gauci Chazar Mystical Warrior 6 6:01:00 13.1, 13.4 13.30 36, 42, 59 (Avg:50)
83 David Porter Sangria Meccalister 7 6:03:00 17.2, 10.7 13.22 31, 48, 44 (Avg:46)
93 Stephen Zonneveld Carnarvon Kasserine Magic 8 6:21:00 13.1, 12.0 12.60 34, 39, 46 (Avg:42)
70 Scott Davenport Alhambra Pierrot 9 6:24:00 13.1, 11.8 12.50 36, 42, 44 (Avg:43)
96 Virginia Blain Suncrest Silver Echo 10 6:25:00 13.3, 11.7 12.47 38, 34, 38 (Avg:36)
90 Warren Trevor Towarri Blaze 11 6:28:00 13.0, 11.7 12.37 40, 40, 38 (Avg:39)
94 Allan Caslick Danjera Hashmet 12 6:29:00 12.6, 11.9 12.34 36, 42, 46 (Avg:44)
79 Jason Duff Imparja Minkala 13 6:50:00 12.8, 10.7 11.71 40, 37, 42 (Avg:39)
89 Gavin Groth Sparkey Power 14 7:02:00 11.3, 11.4 11.37 40, 48, 50 (Avg:49)
74 Frank Mollema Littlebanks Tic Tac Toe 14 7:02:00 12.9, 10.1 11.37 40, 40, 60 (Avg:50)
77 Leonie Blessing Jamar Cheeky 16 7:11:00 10.5, 11.8 11.14 39, 37, 40 (Avg:38)
80 Wendy Bushell Arabesque Arabella 17 7:14:00 11.9, 10.3 11.06 38, 37, 40 (Avg:38)
87 Dean Warren Warren Park Finesse 18 7:16:00 11.8, 10.3 11.01 40, 42, 50 (Avg:46)
95 Eric Cauchi Kriya 19 7:17:00 12.3, 9.9 10.98 40, 46, 46 (Avg:46)
92 Alan Mackinder Razorback Zulu 20 7:23:00 13.1, 9.1 10.84 32, 53, 40 (Avg:46)
86 Tony Warren Al Wahid 21 7:51:00 10.6, 9.7 10.19 36, 38, 46 (Avg:42)
88 Sue Warren Warren Park O.B. One 21 7:51:00 10.6, 9.7 10.19 32, 41, 44 (Avg:42)
73 John Howe Glen Echo Buddy 23 8:00:00 9.9, 9.9 10.00 33, 32, 48 (Avg:40)
85 Gavin Bartlett Ginmara Nejmasal Heart Rate L1 0:00:00 13.1 - 48, 56 (Avg:56)
82 Paddy Smith Shannon Brook Essklan Widthdrawn L1 0:00:00 - - 50, 43 (Avg:43)
84 Allan Watts Erin Park New Moon Widthdrawn L1 0:00:00 - - 44, 0 (Avg:0)
Middleweight
63 Jason Kirk Kairo 1 (BC) 4:31:00 15.7, 20.1 17.71 38, 44, 46 (Avg:45)
64 Kate Pilley Tuldar Regal Reggie 2 5:08:00 11.6, 23.5 15.58 30, 44, 46 (Avg:45)
59 Carol Major Major Luke 3 5:13:00 16.5, 14.2 15.34 44, 41, 46 (Avg:43)
56 Sandi Brown Billywillinga Comet 4 5:22:00 16.3, 13.7 14.91 41, 40, 42 (Avg:41)
57 Brett Willis One Eye Crystal Dreams 4 5:22:00 16.3, 13.7 14.91 40, 44, 44 (Avg:44)
50 Bernice King Noble Navaar Destiny 6 5:56:00 15.6, 11.8 13.48 36, 42, 46 (Avg:44)
66 Luke Harvey Box Hill Ralph 7 6:02:00 13.3, 13.1 13.26 36, 44, 53 (Avg:48)
58 Fiona Meller Malu Vale Embers 8 6:29:00 14.0, 11.0 12.34 32, 40, 43 (Avg:41)
61 Suzanne Barton Wattle Vale Cyrahbi 9 6:48:00 13.0, 10.7 11.76 47, 41, 37 (Avg:39)
53 Christie Chapman Semawia Kessier 10 7:08:00 12.9, 9.9 11.21 32, 38, 48 (Avg:43)
68 Felicity Baird Raymar Yasmin (exp BH) 11 7:17:00 11.7, 10.3 10.98 38, 35, 36 (Avg:35)
67 Mark Harvey Raymar Lyla 11 7:17:00 11.8, 10.2 10.98 36, 38, 38 (Avg:38)
62 Naomi Djuric Aloha Incas 13 7:23:00 11.5, 10.1 10.84 42, 40, 42 (Avg:41)
65 Stuart Hitchcock Ralvon Courier 14 7:30:00 11.5, 9.8 10.67 52, 46, 56 (Avg:51)
55 Victoria Bonham Calypso Jessica 15 7:45:00 10.8, 9.8 10.32 40, 37, 42 (Avg:39)
60 Wendy Porter Paro Prediction 16 8:00:00 10.0, 9.9 10.00 33, 44, 46 (Avg:45)
54 Chris Noonan Mukalla Park Jobarry Lame L2 0:00:00 10.8, 9.8 - 39, 50, 42 (Avg:46)
51 John Symons First Farm Shafeena Lame L2 0:00:00 12.9, 12.0 - 48, 48, 56 (Avg:52)
75 Dallas Blakely Magnum Widthdrawn P/R 0:00:00 - - 36
52 Andrew Blakely Aloha Kyrie Widthdrawn P/R 0:00:00 - - 35
Lightweight
13 Gloria Mills Glendos Sabodie 1 (BC) 4:31:00 20.5, 15.5 17.71 31, 40, 40 (Avg:40)
10 Robin Gossip A'Landell Sarlee 2 5:08:00 16.4, 14.8 15.58 38, 48, 44 (Avg:46)
1 Rochelle Dawe Tarabic Carl 3 6:01:00 13.1, 13.4 13.30 40, 46, 48 (Avg:47)
8 Dianne Luker Kintamani Silver Harmony 4 6:28:00 12.8, 11.9 12.37 30, 40, 48 (Avg:44)
4 Lee Duff Heste Arabique Sweet S'renade 5 6:50:00 12.8, 10.7 11.71 36, 44, 50 (Avg:47)
5 Megan O'Connor Cudgelbar Stormy 6 7:07:00 12.4, 10.2 11.24 47, 41, 40 (Avg:40)
22 Leslee Burrell Larntainey Eureka Gold Lame L2 0:00:00 14.2, 9.4 - 36, 46, 52 (Avg:49)
9 Kerry Reveley Rathowen On Parade Lame L2 0:00:00 16.2, 11.5 - 38, 36, 44 (Avg:40)
12 Jessica Taylor Diamond R Muriel Lame L2 0:00:00 13.5, 13.4 - 30, 42, 44 (Avg:43)
21 Jodi Dewick Wickwood Ibn Hosea Lame L1 0:00:00 10.0 - 46, 45 (Avg:45)
15 Patsy Trevor Shahfa Lame L1 0:00:00 14.4 - 36, 40 (Avg:40)
Junior
18 Allix Jones Rise 'N' Shine 1 5:08:00 16.4, 14.8 15.58 40, 46 (Avg:43)
19 Blake Pilley Tuldar Kosta 1 (BC) 5:08:00 16.4, 14.8 15.58 30, 36, 34 (Avg:35)
20 Kurt Zonneveld Meltharina Mercury 3 6:21:00 12.3, 12.9 12.60 36, 46, 55 (Avg:50)
17 Sophie Babic Celsar Rahil 4 6:27:00 12.6, 12.1 12.40 38, 40, 46 (Avg:43)
16 Hannah Barton Red Storm 5 6:48:00 13.0, 10.7 11.76 44, 36, 41 (Avg:38)
14 Justin Pilley Box Hill Breaker 6 7:01:00 12.9, 10.2 11.40 30, 36, 36 (Avg:36)
11 Seton Croake Jamaal 7 7:02:00 12.9, 10.1 11.37 45, 47, 46 (Avg:46)
2 Anthony R Blessing Jnr Jamar Jester 8 7:12:00 10.5, 11.7 11.11 35, 36, 40 (Avg:38)
7 Indigo Noonan Wilari Stud Countess 9 7:46:00 10.7, 9.8 10.30 34, 46, 44 (Avg:45)
3 Rebecca Blessing Jamar Elle May Lame L2 0:00:00 10.5, 11.7 - 31, 39, 40 (Avg:39)
6 Sharna Harvey Velona Bartez Lame L2 0:00:00 17.1, 16.9 - 36, 43, 50 (Avg:46)